createdAt,value
2019-02-19T00:00:47.640Z,97416.44
2019-02-19T00:03:54.988Z,97408.20
2019-02-19T00:07:01.294Z,97407.30
2019-02-19T00:10:07.875Z,97394.59
2019-02-19T00:13:15.278Z,97391.34
2019-02-19T00:16:22.092Z,97394.43
2019-02-19T00:19:28.690Z,97393.76
2019-02-19T00:22:35.271Z,97394.97
2019-02-19T00:25:42.000Z,97392.16
2019-02-19T00:28:48.476Z,97384.73
2019-02-19T00:31:55.175Z,97390.86
2019-02-19T00:35:01.664Z,97391.14
2019-02-19T00:38:08.989Z,97395.36
2019-02-19T00:41:16.029Z,97392.23
2019-02-19T00:44:23.061Z,97394.07
2019-02-19T00:47:29.821Z,97392.16
2019-02-19T00:50:36.760Z,97390.22
2019-02-19T00:53:43.427Z,97388.25
2019-02-19T00:56:49.835Z,97387.58
2019-02-19T00:59:56.732Z,97390.47
2019-02-19T01:03:05.099Z,97393.69
2019-02-19T01:06:11.871Z,97387.30
2019-02-19T01:09:18.595Z,97385.91
2019-02-19T01:12:25.069Z,97378.30
2019-02-19T01:15:31.593Z,97374.17
2019-02-19T01:18:37.929Z,97375.95
2019-02-19T01:21:44.507Z,97373.44
2019-02-19T01:24:50.776Z,97369.11
2019-02-19T01:27:57.864Z,97373.44
2019-02-19T01:31:04.511Z,97372.97
2019-02-19T01:34:10.899Z,97363.02
2019-02-19T01:37:17.453Z,97360.61
2019-02-19T01:40:24.316Z,97351.69
2019-02-19T01:43:30.926Z,97359.27
2019-02-19T01:46:39.644Z,97354.42
2019-02-19T01:49:45.894Z,97360.13
2019-02-19T01:52:52.630Z,97357.86
2019-02-19T01:55:58.981Z,97364.89
2019-02-19T01:59:05.188Z,97362.08
2019-02-19T02:02:11.643Z,97362.03
2019-02-19T02:05:17.912Z,97360.58
2019-02-19T02:08:24.330Z,97359.72
2019-02-19T02:11:30.892Z,97363.79
2019-02-19T02:14:37.894Z,97361.51
2019-02-19T02:17:44.376Z,97356.33
2019-02-19T02:20:50.625Z,97366.91
2019-02-19T02:23:57.304Z,97369.20
2019-02-19T02:27:03.477Z,97368.96
2019-02-19T02:30:09.912Z,97367.02
2019-02-19T02:33:16.393Z,97372.95
2019-02-19T02:36:22.974Z,97379.30
2019-02-19T02:39:29.922Z,97385.50
2019-02-19T02:42:36.319Z,97391.53
2019-02-19T02:45:53.059Z,97375.31
2019-02-19T02:48:51.854Z,97378.72
2019-02-19T02:51:58.531Z,97373.02
2019-02-19T02:55:05.237Z,97368.52
2019-02-19T02:58:11.979Z,97374.31
2019-02-19T03:01:18.218Z,97376.76
2019-02-19T03:04:24.871Z,97377.03
2019-02-19T03:07:43.118Z,97386.20
2019-02-19T03:10:49.679Z,97381.28
2019-02-19T03:13:56.077Z,97386.81
2019-02-19T03:17:02.575Z,97379.56
2019-02-19T03:20:09.480Z,97378.63
2019-02-19T03:23:15.968Z,97375.08
2019-02-19T03:26:22.336Z,97377.57
2019-02-19T03:29:28.643Z,97382.76
2019-02-19T03:32:35.149Z,97376.48
2019-02-19T03:35:41.521Z,97386.82
2019-02-19T03:38:48.073Z,97390.11
2019-02-19T03:41:54.621Z,97390.64
2019-02-19T03:45:01.053Z,97392.72
2019-02-19T03:48:08.011Z,97387.45
2019-02-19T03:51:14.477Z,97397.02
2019-02-19T03:54:20.934Z,97397.97
2019-02-19T03:57:27.571Z,97401.66
2019-02-19T04:00:34.119Z,97400.80
2019-02-19T04:03:40.867Z,97396.22
2019-02-19T04:06:47.334Z,97398.61
2019-02-19T04:09:53.842Z,97408.47
2019-02-19T04:13:00.986Z,97402.51
2019-02-19T04:16:07.506Z,97403.00
2019-02-19T04:19:14.187Z,97405.98
2019-02-19T04:22:20.629Z,97406.70
2019-02-19T04:25:26.950Z,97413.83
2019-02-19T04:28:33.281Z,97412.61
2019-02-19T04:31:40.165Z,97410.76
2019-02-19T04:34:46.397Z,97415.34
2019-02-19T04:37:52.913Z,97410.34
2019-02-19T04:40:59.602Z,97408.77
2019-02-19T04:44:05.962Z,97412.44
2019-02-19T04:47:12.762Z,97413.26
2019-02-19T04:50:19.802Z,97410.40
2019-02-19T04:53:26.653Z,97417.87
2019-02-19T04:56:33.372Z,97410.92
2019-02-19T04:59:40.596Z,97418.92
2019-02-19T05:02:47.364Z,97416.23
2019-02-19T05:05:53.900Z,97409.33
2019-02-19T05:09:00.680Z,97418.44
2019-02-19T05:12:08.026Z,97415.16
2019-02-19T05:15:14.721Z,97407.55
2019-02-19T05:18:21.007Z,97408.97
2019-02-19T05:21:28.454Z,97415.17
2019-02-19T05:24:35.554Z,97409.78
2019-02-19T05:27:43.369Z,97407.53
2019-02-19T05:30:49.956Z,97403.48
2019-02-19T05:33:56.578Z,97405.74
2019-02-19T05:37:03.359Z,97408.05
2019-02-19T05:40:10.487Z,97404.90
2019-02-19T05:43:16.963Z,97404.68
2019-02-19T05:46:23.307Z,97411.34
2019-02-19T05:49:29.665Z,97416.66
2019-02-19T05:52:36.253Z,97422.89
2019-02-19T05:55:42.524Z,97424.61
2019-02-19T05:58:49.182Z,97429.97
2019-02-19T06:01:55.503Z,97439.53
2019-02-19T06:05:02.220Z,97434.10
2019-02-19T06:08:08.517Z,97443.13
2019-02-19T06:11:15.576Z,97441.38
2019-02-19T06:14:22.263Z,97445.23
2019-02-19T06:17:28.656Z,97455.45
2019-02-19T06:20:35.284Z,97440.30
2019-02-19T06:23:41.800Z,97455.61
2019-02-19T06:26:48.454Z,97454.91
2019-02-19T06:29:54.956Z,97457.84
2019-02-19T06:33:01.243Z,97459.51
2019-02-19T06:36:08.178Z,97465.80
2019-02-19T06:39:14.938Z,97464.52
2019-02-19T06:42:23.347Z,97465.20
2019-02-19T06:45:29.535Z,97464.95
2019-02-19T06:48:35.867Z,97470.64
2019-02-19T06:51:43.142Z,97473.38
2019-02-19T06:54:49.596Z,97483.10
2019-02-19T06:57:56.161Z,97482.98
2019-02-19T07:01:02.817Z,97486.09
2019-02-19T07:04:16.082Z,97488.14
2019-02-19T07:07:22.631Z,97490.20
2019-02-19T07:10:29.126Z,97493.53
2019-02-19T07:13:35.926Z,97491.08
2019-02-19T07:16:43.079Z,97489.63
2019-02-19T07:19:49.340Z,97486.42
2019-02-19T07:22:56.116Z,97487.38
2019-02-19T07:26:02.968Z,97494.55
2019-02-19T07:29:09.644Z,97492.76
2019-02-19T07:32:16.285Z,97499.17
2019-02-19T07:35:22.636Z,97493.28
2019-02-19T07:38:29.019Z,97485.53
2019-02-19T07:41:35.811Z,97496.03
2019-02-19T07:44:42.098Z,97488.17
2019-02-19T07:47:48.953Z,97489.17
2019-02-19T07:50:55.249Z,97494.23
2019-02-19T07:54:01.560Z,97501.39
2019-02-19T07:57:08.279Z,97507.63
2019-02-19T08:00:15.533Z,97503.81
2019-02-19T08:03:22.123Z,97505.77
2019-02-19T08:06:28.545Z,97516.09
2019-02-19T08:09:35.320Z,97512.90
2019-02-19T08:12:42.877Z,97515.75
2019-02-19T08:15:50.180Z,97512.80
2019-02-19T08:18:57.028Z,97510.79
2019-02-19T08:22:04.242Z,97508.30
2019-02-19T08:25:11.156Z,97516.07
2019-02-19T08:28:18.185Z,97507.66
2019-02-19T08:31:24.911Z,97514.66
2019-02-19T08:34:31.644Z,97514.65
2019-02-19T08:37:39.188Z,97517.27
2019-02-19T08:40:46.417Z,97523.45
2019-02-19T08:43:52.757Z,97522.53
2019-02-19T08:46:59.266Z,97530.23
2019-02-19T08:50:05.861Z,97529.39
2019-02-19T08:53:12.295Z,97531.08
2019-02-19T08:56:18.823Z,97536.33
2019-02-19T08:59:25.124Z,97538.59
2019-02-19T09:02:31.922Z,97550.05
2019-02-19T09:05:38.634Z,97557.27
2019-02-19T09:08:45.351Z,97565.52
2019-02-19T09:11:51.658Z,97569.75
2019-02-19T09:14:58.596Z,97561.25
2019-02-19T09:18:05.084Z,97564.05
2019-02-19T09:21:11.836Z,97565.65
2019-02-19T09:24:18.746Z,97571.93
2019-02-19T09:27:25.889Z,97570.34
2019-02-19T09:30:32.382Z,97571.25
2019-02-19T09:33:39.088Z,97578.33
2019-02-19T09:36:45.873Z,97580.55
2019-02-19T09:39:52.200Z,97599.01
2019-02-19T09:42:58.727Z,97596.03
2019-02-19T09:46:05.506Z,97596.67
2019-02-19T09:49:11.853Z,97593.98
2019-02-19T09:52:18.676Z,97588.62
2019-02-19T09:55:25.438Z,97587.59
2019-02-19T09:58:32.075Z,97596.61
2019-02-19T10:01:39.083Z,97595.01
2019-02-19T10:04:45.855Z,97598.40
2019-02-19T10:07:52.658Z,97604.56
2019-02-19T10:10:59.289Z,97602.16
2019-02-19T10:14:06.447Z,97615.07
2019-02-19T10:17:16.130Z,97619.78
2019-02-19T10:20:22.725Z,97619.49
2019-02-19T10:23:29.382Z,97632.23
2019-02-19T10:26:36.782Z,97630.63
2019-02-19T10:29:43.815Z,97632.50
2019-02-19T10:32:50.233Z,97636.66
2019-02-19T10:35:56.755Z,97641.33
2019-02-19T10:39:04.789Z,97639.11
2019-02-19T10:42:11.406Z,97641.92
2019-02-19T10:45:18.700Z,97642.58
2019-02-19T10:48:25.519Z,97641.33
2019-02-19T10:51:35.299Z,97640.48
2019-02-19T10:54:42.655Z,97644.42
2019-02-19T10:57:51.256Z,97640.78
2019-02-19T11:00:59.198Z,97642.76
2019-02-19T11:04:08.475Z,97631.70
2019-02-19T11:07:16.197Z,97630.39
2019-02-19T11:10:28.062Z,97631.06
2019-02-19T11:13:40.142Z,97631.52
2019-02-19T11:16:47.786Z,97624.41
2019-02-19T11:19:56.669Z,97626.16
2019-02-19T11:23:06.115Z,97627.53
2019-02-19T11:26:17.079Z,97632.34
2019-02-19T11:29:24.441Z,97628.74
2019-02-19T11:32:31.121Z,97622.55
2019-02-19T11:35:37.873Z,97618.06
2019-02-19T11:38:44.820Z,97623.02
2019-02-19T11:41:52.252Z,97622.67
2019-02-19T11:44:59.749Z,97619.58
2019-02-19T11:48:06.468Z,97614.45
2019-02-19T11:51:12.942Z,97602.46
2019-02-19T11:54:19.717Z,97601.73
2019-02-19T11:57:26.380Z,97604.91
2019-02-19T12:00:35.306Z,97599.55
2019-02-19T12:03:41.963Z,97604.60
2019-02-19T12:06:48.357Z,97596.30
2019-02-19T12:09:54.989Z,97598.09
2019-02-19T12:13:02.581Z,97596.06
2019-02-19T12:16:09.351Z,97592.02
2019-02-19T12:19:16.060Z,97582.38
2019-02-19T12:22:22.880Z,97580.01
2019-02-19T12:25:29.374Z,97581.05
2019-02-19T12:28:36.157Z,97587.63
2019-02-19T12:31:43.203Z,97586.48
2019-02-19T12:34:49.728Z,97582.64
2019-02-19T12:37:56.441Z,97574.88
2019-02-19T12:41:02.928Z,97566.03
2019-02-19T12:44:09.789Z,97563.57
2019-02-19T12:47:16.208Z,97563.33
2019-02-19T12:50:22.643Z,97558.44
2019-02-19T12:53:29.515Z,97561.68
2019-02-19T12:56:37.232Z,97555.06
2019-02-19T12:59:43.988Z,97555.79
2019-02-19T13:02:50.743Z,97552.00
2019-02-19T13:05:57.445Z,97555.14
2019-02-19T13:09:06.001Z,97554.81
2019-02-19T13:12:12.974Z,97546.00
2019-02-19T13:15:19.931Z,97546.06
2019-02-19T13:18:26.809Z,97549.97
2019-02-19T13:21:34.296Z,97540.05
2019-02-19T13:24:41.067Z,97547.95
2019-02-19T13:27:48.242Z,97543.11
2019-02-19T13:30:55.240Z,97553.94
2019-02-19T13:34:02.524Z,97561.77
2019-02-19T13:37:09.233Z,97570.09
2019-02-19T13:40:16.302Z,97573.44
2019-02-19T13:43:23.685Z,97552.75
2019-02-19T13:46:31.015Z,97548.23
2019-02-19T13:49:37.728Z,97546.89
2019-02-19T13:52:52.887Z,97550.92
2019-02-19T13:56:01.876Z,97538.21
2019-02-19T13:59:11.294Z,97545.22
2019-02-19T14:02:19.639Z,97542.36
2019-02-19T14:05:26.298Z,97540.48
2019-02-19T14:08:33.211Z,97543.86
2019-02-19T14:11:39.734Z,97544.84
2019-02-19T14:14:51.119Z,97532.00
2019-02-19T14:17:58.668Z,97532.69
2019-02-19T14:21:23.316Z,97536.43
2019-02-19T14:25:01.875Z,97536.09
2019-02-19T14:28:46.995Z,97544.75
2019-02-19T14:32:09.371Z,97536.84
2019-02-19T14:35:35.169Z,97536.47
2019-02-19T14:38:59.327Z,97548.16
2019-02-19T14:42:32.690Z,97557.59
2019-02-19T14:46:16.314Z,97577.20
2019-02-19T14:49:37.349Z,97580.92
2019-02-19T14:53:03.848Z,97589.73
2019-02-19T14:56:29.439Z,97587.70
2019-02-19T15:00:07.468Z,97583.80
2019-02-19T15:03:41.960Z,97599.95
2019-02-19T15:07:07.936Z,97594.36
2019-02-19T15:10:48.763Z,97587.55
2019-02-19T15:14:17.854Z,97584.58
2019-02-19T15:17:46.197Z,97595.28
2019-02-19T15:21:02.847Z,97593.48
2019-02-19T15:24:26.613Z,97588.39
2019-02-19T15:27:38.239Z,97595.36
2019-02-19T15:30:56.253Z,97593.68
2019-02-19T15:34:20.277Z,97593.40
2019-02-19T15:37:44.702Z,97599.55
2019-02-19T15:41:07.041Z,97599.35
2019-02-19T15:44:47.795Z,97606.33
2019-02-19T15:48:16.698Z,97605.66
2019-02-19T15:51:51.533Z,97610.09
2019-02-19T15:55:15.703Z,97602.45
2019-02-19T15:58:40.107Z,97605.63
2019-02-19T16:02:06.294Z,97614.36
2019-02-19T16:05:32.160Z,97614.45
2019-02-19T16:09:01.293Z,97616.67
2019-02-19T16:12:21.624Z,97618.52
2019-02-19T16:15:48.481Z,97618.02
2019-02-19T16:19:20.194Z,97624.13
2019-02-19T16:22:48.952Z,97623.84
2019-02-19T16:26:18.795Z,97628.22
2019-02-19T16:29:44.538Z,97634.44
2019-02-19T16:33:25.255Z,97636.83
2019-02-19T16:36:50.819Z,97634.67
2019-02-19T16:40:05.469Z,97636.36
2019-02-19T16:43:43.363Z,97637.86
2019-02-19T16:47:15.243Z,97637.87
2019-02-19T16:50:44.021Z,97638.19
2019-02-19T16:54:22.328Z,97640.13
2019-02-19T16:57:37.500Z,97642.67
2019-02-19T17:01:02.502Z,97640.89
2019-02-19T17:04:22.017Z,97646.37
2019-02-19T17:07:36.977Z,97648.84
2019-02-19T17:10:57.167Z,97651.73
2019-02-19T17:14:22.112Z,97657.84
2019-02-19T17:17:45.737Z,97659.13
2019-02-19T17:21:08.900Z,97655.70
2019-02-19T17:24:29.404Z,97652.85
2019-02-19T17:27:53.161Z,97667.70
2019-02-19T17:31:34.764Z,97667.20
2019-02-19T17:34:58.975Z,97668.89
2019-02-19T17:38:25.091Z,97673.52
2019-02-19T17:41:39.391Z,97668.58
2019-02-19T17:45:04.430Z,97679.83
2019-02-19T17:48:33.379Z,97679.66
2019-02-19T17:52:02.599Z,97679.25
2019-02-19T17:55:29.696Z,97684.19
2019-02-19T17:58:44.810Z,97685.53
2019-02-19T18:02:22.666Z,97684.48
2019-02-19T18:05:47.276Z,97695.91
2019-02-19T18:09:07.158Z,97693.47
2019-02-19T18:12:33.800Z,97692.84
2019-02-19T18:16:11.781Z,97699.38
2019-02-19T18:19:18.894Z,97705.73
2019-02-19T18:22:26.192Z,97708.34
2019-02-19T18:25:32.769Z,97710.59
2019-02-19T18:28:39.546Z,97713.19
2019-02-19T18:31:46.848Z,97703.33
2019-02-19T18:34:53.355Z,97713.34
2019-02-19T18:38:00.230Z,97715.67
2019-02-19T18:41:06.773Z,97709.93
2019-02-19T18:44:13.533Z,97719.34
2019-02-19T18:47:21.913Z,97720.64
2019-02-19T18:50:29.366Z,97718.88
2019-02-19T18:53:35.745Z,97717.76
2019-02-19T18:56:43.006Z,97721.09
2019-02-19T18:59:52.934Z,97723.06
2019-02-19T19:03:00.099Z,97719.40
2019-02-19T19:06:06.995Z,97721.42
2019-02-19T19:09:14.243Z,97726.98
2019-02-19T19:12:21.264Z,97731.66
2019-02-19T19:15:28.090Z,97735.64
2019-02-19T19:18:35.165Z,97738.64
2019-02-19T19:21:45.250Z,97739.73
2019-02-19T19:24:52.514Z,97753.52
2019-02-19T19:27:59.315Z,97753.23
2019-02-19T19:31:06.665Z,97752.06
2019-02-19T19:34:13.490Z,97759.25
2019-02-19T19:37:20.266Z,97759.06
2019-02-19T19:40:27.201Z,97768.70
2019-02-19T19:43:34.142Z,97770.30
2019-02-19T19:46:40.698Z,97768.55
2019-02-19T19:49:47.172Z,97771.19
2019-02-19T19:52:58.542Z,97775.22
2019-02-19T19:56:05.512Z,97773.19
2019-02-19T19:59:12.107Z,97775.37
2019-02-19T20:02:20.019Z,97776.79
2019-02-19T20:05:28.267Z,97776.83
2019-02-19T20:08:35.491Z,97779.02
2019-02-19T20:11:43.564Z,97786.74
2019-02-19T20:14:51.065Z,97783.27
2019-02-19T20:17:58.186Z,97794.34
2019-02-19T20:21:04.999Z,97788.38
2019-02-19T20:24:12.120Z,97791.27
2019-02-19T20:27:18.885Z,97795.91
2019-02-19T20:30:26.156Z,97793.94
2019-02-19T20:33:33.047Z,97797.89
2019-02-19T20:36:40.125Z,97795.69
2019-02-19T20:39:47.883Z,97801.05
2019-02-19T20:42:55.166Z,97805.06
2019-02-19T20:46:02.524Z,97801.51
2019-02-19T20:49:09.635Z,97801.65
2019-02-19T20:52:16.647Z,97799.19
2019-02-19T20:55:23.218Z,97803.41
2019-02-19T20:58:30.179Z,97807.73
2019-02-19T21:01:40.769Z,97810.86
2019-02-19T21:04:48.162Z,97815.34
2019-02-19T21:07:54.771Z,97811.41
2019-02-19T21:11:01.393Z,97812.84
2019-02-19T21:14:08.581Z,97811.05
2019-02-19T21:17:14.951Z,97811.25
2019-02-19T21:20:24.404Z,97812.91
2019-02-19T21:23:31.616Z,97811.38
2019-02-19T21:26:38.933Z,97817.88
2019-02-19T21:29:46.299Z,97820.34
2019-02-19T21:32:54.327Z,97816.11
2019-02-19T21:36:01.151Z,97824.70
2019-02-19T21:39:07.864Z,97811.95
2019-02-19T21:42:15.835Z,97815.67
2019-02-19T21:45:22.580Z,97818.36
2019-02-19T21:48:29.577Z,97819.48
2019-02-19T21:51:37.356Z,97821.41
2019-02-19T21:54:44.523Z,97817.78
2019-02-19T21:57:50.923Z,97819.17
2019-02-19T22:00:57.730Z,97814.88
2019-02-19T22:04:04.211Z,97820.17
2019-02-19T22:07:11.061Z,97819.93
2019-02-19T22:10:17.503Z,97821.31
2019-02-19T22:13:24.660Z,97815.55
2019-02-19T22:16:32.229Z,97815.46
2019-02-19T22:19:40.599Z,97815.09
2019-02-19T22:22:47.346Z,97822.27
2019-02-19T22:25:53.729Z,97818.39
2019-02-19T22:29:00.493Z,97816.79
2019-02-19T22:32:08.097Z,97812.05
2019-02-19T22:35:15.784Z,97816.39
2019-02-19T22:38:22.125Z,97827.49
2019-02-19T22:41:28.739Z,97826.70
2019-02-19T22:44:35.526Z,97823.95
2019-02-19T22:47:42.134Z,97822.75
2019-02-19T22:50:49.724Z,97825.11
2019-02-19T22:54:10.048Z,97824.38
2019-02-19T22:57:16.685Z,97831.41
2019-02-19T23:00:47.319Z,97830.14
2019-02-19T23:03:56.037Z,97829.55
2019-02-19T23:07:02.578Z,97836.11
2019-02-19T23:10:09.383Z,97833.77
2019-02-19T23:13:16.245Z,97833.59
2019-02-19T23:16:22.676Z,97839.02
2019-02-19T23:19:28.902Z,97840.91
2019-02-19T23:22:35.572Z,97841.70
2019-02-19T23:25:42.023Z,97844.13
2019-02-19T23:28:48.508Z,97849.81
2019-02-19T23:31:55.096Z,97847.21
2019-02-19T23:35:15.912Z,97856.16
2019-02-19T23:38:22.378Z,97857.64
2019-02-19T23:41:29.741Z,97861.60
2019-02-19T23:44:36.532Z,97861.73
2019-02-19T23:47:43.376Z,97865.34
2019-02-19T23:50:50.177Z,97866.34
2019-02-19T23:53:57.400Z,97862.59
2019-02-19T23:57:03.841Z,97859.71
